VGEG/CGP METAR and TAF weather

Enter ICAO airport designator
Station Type Date Time Source
VGEG METAR 2020/08/10 17:00 UTC NOAA

VGEG 101700Z 18005KT 5000 SCT018 FEW030CB BKN100 28/27 Q1003 NOSIG


Station Type Date Time Source
VGEG Decoded METAR 2020/08/10 17:00 UTC NOAA

Chittagong Patenga , Bangladesh (VGEG) 22-16N 091-49E 6M
Aug 10, 2020 - 01:00 PM EDT / 2020.08.10 1700 UTC
Wind: from the S (180 degrees) at 6 MPH (5 KT):0
Visibility: 3 mile(s):0
Sky conditions: mostly cloudy
Weather: Cumulonimbus clouds observed
Temperature: 82 F (28 C)
Dew Point: 80 F (27 C)
Relative Humidity: 94%
Pressure (altimeter): 29.62 in. Hg (1003 hPa)
ob: VGEG 101700Z 18005KT 5000 SCT018 FEW030CB BKN100 28/27 Q1003 NOSIG
cycle: 17

Station Type Date Time Source
VGEG TAF 2020/08/10 18:57 UTC NOAA

TAF VGEG 101700Z 1018/1124 17005KT 5000 SCT015 BKN100
BECMG 1102/1104 16005KT 4500 DZ SCT015 BKN100
BECMG 1112/1114 18012KT 5000 SCT015 BKN100
BECMG 1118/1120 17005KT 5000 SCT015 BKN100

Example: see airport list